sensor_id;sensor_type;location;lat;lon;timestamp;pressure;altitude;pressure_sealevel;temperature;humidity
61900;BME280;47853;55.890;37.664;2024-01-25T00:00:52;98097.22;;;3.36;100.00
61900;BME280;47853;55.890;37.664;2024-01-25T00:03:17;98090.69;;;3.66;100.00
61900;BME280;47853;55.890;37.664;2024-01-25T00:05:43;98075.66;;;3.50;100.00
61900;BME280;47853;55.890;37.664;2024-01-25T00:08:08;98087.09;;;3.41;100.00
61900;BME280;47853;55.890;37.664;2024-01-25T00:10:34;98061.41;;;3.26;100.00
61900;BME280;47853;55.890;37.664;2024-01-25T00:12:59;98061.78;;;3.58;100.00
61900;BME280;47853;55.890;37.664;2024-01-25T00:15:25;98066.47;;;2.83;100.00
61900;BME280;47853;55.890;37.664;2024-01-25T00:17:50;98061.19;;;4.07;100.00
61900;BME280;47853;55.890;37.664;2024-01-25T00:20:16;98054.97;;;4.16;100.00
61900;BME280;47853;55.890;37.664;2024-01-25T00:22:41;98067.53;;;3.96;100.00
61900;BME280;47853;55.890;37.664;2024-01-25T00:25:07;98049.09;;;3.53;100.00
61900;BME280;47853;55.890;37.664;2024-01-25T00:27:32;98047.97;;;3.90;100.00
61900;BME280;47853;55.890;37.664;2024-01-25T00:29:58;98048.19;;;3.10;100.00
61900;BME280;47853;55.890;37.664;2024-01-25T00:32:23;98061.00;;;3.39;100.00
61900;BME280;47853;55.890;37.664;2024-01-25T00:34:49;98055.63;;;3.49;100.00
61900;BME280;47853;55.890;37.664;2024-01-25T00:37:14;98049.97;;;3.62;100.00
61900;BME280;47853;55.890;37.664;2024-01-25T00:39:40;98037.38;;;3.13;100.00
61900;BME280;47853;55.890;37.664;2024-01-25T00:42:06;98047.41;;;4.05;100.00
61900;BME280;47853;55.890;37.664;2024-01-25T00:44:32;98044.78;;;4.13;100.00
61900;BME280;47853;55.890;37.664;2024-01-25T00:46:58;98039.06;;;3.75;100.00
61900;BME280;47853;55.890;37.664;2024-01-25T00:49:24;98027.56;;;3.41;100.00
61900;BME280;47853;55.890;37.664;2024-01-25T00:51:50;98031.72;;;3.87;100.00
61900;BME280;47853;55.890;37.664;2024-01-25T00:54:19;98034.03;;;3.90;100.00
61900;BME280;47853;55.890;37.664;2024-01-25T00:56:44;98025.09;;;3.74;100.00
61900;BME280;47853;55.890;37.664;2024-01-25T00:59:10;98028.00;;;3.63;100.00
61900;BME280;47853;55.890;37.664;2024-01-25T01:01:36;98021.47;;;3.14;100.00
61900;BME280;47853;55.890;37.664;2024-01-25T01:04:01;98023.06;;;3.33;100.00
61900;BME280;47853;55.890;37.664;2024-01-25T01:06:27;98016.94;;;2.98;100.00
61900;BME280;47853;55.890;37.664;2024-01-25T01:08:53;98011.09;;;3.57;100.00
61900;BME280;47853;55.890;37.664;2024-01-25T01:11:19;97990.13;;;3.66;100.00
61900;BME280;47853;55.890;37.664;2024-01-25T01:13:44;98009.84;;;3.43;100.00
61900;BME280;47853;55.890;37.664;2024-01-25T01:16:10;97982.44;;;3.38;100.00
61900;BME280;47853;55.890;37.664;2024-01-25T01:18:35;98001.06;;;3.61;100.00
61900;BME280;47853;55.890;37.664;2024-01-25T01:21:01;97993.16;;;3.96;100.00
61900;BME280;47853;55.890;37.664;2024-01-25T01:23:26;98005.44;;;3.17;100.00
61900;BME280;47853;55.890;37.664;2024-01-25T01:25:52;97984.59;;;2.89;100.00
61900;BME280;47853;55.890;37.664;2024-01-25T01:28:17;97981.00;;;3.43;100.00
61900;BME280;47853;55.890;37.664;2024-01-25T01:30:42;97990.44;;;3.62;100.00
61900;BME280;47853;55.890;37.664;2024-01-25T01:33:08;97984.69;;;4.10;100.00
61900;BME280;47853;55.890;37.664;2024-01-25T01:35:34;97976.81;;;3.67;100.00
61900;BME280;47853;55.890;37.664;2024-01-25T01:37:59;97967.63;;;3.28;100.00
61900;BME280;47853;55.890;37.664;2024-01-25T01:40:25;97976.84;;;3.06;100.00
61900;BME280;47853;55.890;37.664;2024-01-25T01:42:51;97974.16;;;2.53;100.00
61900;BME280;47853;55.890;37.664;2024-01-25T01:45:16;97966.66;;;3.03;100.00
61900;BME280;47853;55.890;37.664;2024-01-25T01:47:42;97988.81;;;3.09;100.00
61900;BME280;47853;55.890;37.664;2024-01-25T01:50:09;97983.38;;;3.71;100.00
61900;BME280;47853;55.890;37.664;2024-01-25T01:52:34;97969.09;;;3.57;100.00
61900;BME280;47853;55.890;37.664;2024-01-25T01:55:00;97967.03;;;3.43;100.00
61900;BME280;47853;55.890;37.664;2024-01-25T01:57:26;97969.00;;;3.84;100.00
61900;BME280;47853;55.890;37.664;2024-01-25T01:59:52;97978.84;;;3.82;100.00
61900;BME280;47853;55.890;37.664;2024-01-25T02:02:18;97965.16;;;3.61;100.00
61900;BME280;47853;55.890;37.664;2024-01-25T02:04:43;97983.00;;;2.97;100.00
61900;BME280;47853;55.890;37.664;2024-01-25T02:07:09;97964.63;;;3.58;100.00
61900;BME280;47853;55.890;37.664;2024-01-25T02:09:35;97971.63;;;2.88;100.00
61900;BME280;47853;55.890;37.664;2024-01-25T02:12:01;97974.47;;;3.56;100.00
61900;BME280;47853;55.890;37.664;2024-01-25T02:14:35;97960.28;;;3.75;100.00
61900;BME280;47853;55.890;37.664;2024-01-25T02:17:01;97954.97;;;3.58;100.00
61900;BME280;47853;55.890;37.664;2024-01-25T02:19:26;97968.56;;;3.19;100.00
61900;BME280;47853;55.890;37.664;2024-01-25T02:21:57;97960.88;;;2.99;100.00
61900;BME280;47853;55.890;37.664;2024-01-25T02:24:24;97975.38;;;2.85;100.00
61900;BME280;47853;55.890;37.664;2024-01-25T02:26:49;97980.84;;;2.92;100.00
61900;BME280;47853;55.890;37.664;2024-01-25T02:29:14;97962.56;;;2.82;100.00
61900;BME280;47853;55.890;37.664;2024-01-25T02:31:40;97969.22;;;2.95;100.00
61900;BME280;47853;55.890;37.664;2024-01-25T02:34:05;97990.69;;;2.72;100.00
61900;BME280;47853;55.890;37.664;2024-01-25T02:36:31;97962.53;;;2.56;100.00
61900;BME280;47853;55.890;37.664;2024-01-25T02:38:56;97992.34;;;2.73;100.00
61900;BME280;47853;55.890;37.664;2024-01-25T02:41:22;97953.06;;;3.08;100.00
61900;BME280;47853;55.890;37.664;2024-01-25T02:43:47;97995.13;;;2.53;100.00
61900;BME280;47853;55.890;37.664;2024-01-25T02:46:13;97981.31;;;3.14;100.00
61900;BME280;47853;55.890;37.664;2024-01-25T02:48:38;97971.28;;;2.65;100.00
61900;BME280;47853;55.890;37.664;2024-01-25T02:51:04;97956.06;;;3.13;100.00
61900;BME280;47853;55.890;37.664;2024-01-25T02:53:29;97958.56;;;2.96;100.00
61900;BME280;47853;55.890;37.664;2024-01-25T02:55:55;97960.56;;;3.29;100.00
61900;BME280;47853;55.890;37.664;2024-01-25T02:58:20;97956.75;;;2.88;100.00
61900;BME280;47853;55.890;37.664;2024-01-25T03:00:45;97957.75;;;2.51;100.00
61900;BME280;47853;55.890;37.664;2024-01-25T03:03:14;97962.69;;;2.54;100.00
61900;BME280;47853;55.890;37.664;2024-01-25T03:05:39;97950.88;;;2.50;100.00
61900;BME280;47853;55.890;37.664;2024-01-25T03:08:05;97953.63;;;2.67;100.00
61900;BME280;47853;55.890;37.664;2024-01-25T03:10:30;97941.91;;;3.05;100.00
61900;BME280;47853;55.890;37.664;2024-01-25T03:12:55;97944.03;;;2.75;100.00
61900;BME280;47853;55.890;37.664;2024-01-25T03:15:21;97946.28;;;2.70;100.00
61900;BME280;47853;55.890;37.664;2024-01-25T03:17:46;97935.50;;;2.73;100.00
61900;BME280;47853;55.890;37.664;2024-01-25T03:20:12;97925.34;;;2.52;100.00
61900;BME280;47853;55.890;37.664;2024-01-25T03:22:37;97924.38;;;2.80;100.00
61900;BME280;47853;55.890;37.664;2024-01-25T03:25:03;97930.00;;;3.19;100.00
61900;BME280;47853;55.890;37.664;2024-01-25T03:27:28;97922.72;;;3.05;100.00
61900;BME280;47853;55.890;37.664;2024-01-25T03:29:54;97932.75;;;3.44;100.00
61900;BME280;47853;55.890;37.664;2024-01-25T03:32:19;97910.38;;;2.97;100.00
61900;BME280;47853;55.890;37.664;2024-01-25T03:34:45;97923.84;;;2.76;100.00
61900;BME280;47853;55.890;37.664;2024-01-25T03:37:10;97932.69;;;2.75;100.00
61900;BME280;47853;55.890;37.664;2024-01-25T03:39:36;97922.91;;;2.59;100.00
61900;BME280;47853;55.890;37.664;2024-01-25T03:42:01;97909.41;;;2.45;100.00
61900;BME280;47853;55.890;37.664;2024-01-25T03:44:27;97926.97;;;2.98;100.00
61900;BME280;47853;55.890;37.664;2024-01-25T03:46:52;97912.53;;;2.49;100.00
61900;BME280;47853;55.890;37.664;2024-01-25T03:49:18;97933.97;;;2.71;100.00
61900;BME280;47853;55.890;37.664;2024-01-25T03:51:43;97906.53;;;2.39;100.00
61900;BME280;47853;55.890;37.664;2024-01-25T03:54:09;97924.69;;;2.32;100.00
61900;BME280;47853;55.890;37.664;2024-01-25T03:56:34;97920.06;;;2.26;100.00
61900;BME280;47853;55.890;37.664;2024-01-25T03:59:00;97912.69;;;2.29;100.00
61900;BME280;47853;55.890;37.664;2024-01-25T04:01:25;97893.19;;;2.06;100.00
61900;BME280;47853;55.890;37.664;2024-01-25T04:03:50;97896.19;;;2.11;100.00
61900;BME280;47853;55.890;37.664;2024-01-25T04:06:16;97889.00;;;3.10;100.00
61900;BME280;47853;55.890;37.664;2024-01-25T04:08:41;97891.22;;;2.97;100.00
61900;BME280;47853;55.890;37.664;2024-01-25T04:11:07;97902.25;;;2.82;100.00
61900;BME280;47853;55.890;37.664;2024-01-25T04:13:32;97881.94;;;2.31;100.00
61900;BME280;47853;55.890;37.664;2024-01-25T04:15:58;97902.66;;;2.43;100.00
61900;BME280;47853;55.890;37.664;2024-01-25T04:18:23;97898.22;;;2.61;100.00
61900;BME280;47853;55.890;37.664;2024-01-25T04:20:49;97888.13;;;2.49;100.00
61900;BME280;47853;55.890;37.664;2024-01-25T04:23:14;97884.59;;;2.40;100.00
61900;BME280;47853;55.890;37.664;2024-01-25T04:25:40;97884.28;;;3.22;100.00
61900;BME280;47853;55.890;37.664;2024-01-25T04:28:05;97882.81;;;2.40;100.00
61900;BME280;47853;55.890;37.664;2024-01-25T04:30:31;97903.28;;;1.82;100.00
61900;BME280;47853;55.890;37.664;2024-01-25T04:32:56;97897.72;;;2.40;100.00
61900;BME280;47853;55.890;37.664;2024-01-25T04:35:21;97886.81;;;2.08;100.00
61900;BME280;47853;55.890;37.664;2024-01-25T04:37:47;97911.44;;;2.15;100.00
61900;BME280;47853;55.890;37.664;2024-01-25T04:40:12;97906.69;;;1.65;100.00
61900;BME280;47853;55.890;37.664;2024-01-25T04:42:38;97919.16;;;2.17;100.00
61900;BME280;47853;55.890;37.664;2024-01-25T04:45:04;97920.03;;;1.90;100.00
61900;BME280;47853;55.890;37.664;2024-01-25T04:47:29;97905.31;;;2.07;100.00
61900;BME280;47853;55.890;37.664;2024-01-25T04:49:55;97900.28;;;1.95;100.00
61900;BME280;47853;55.890;37.664;2024-01-25T04:52:20;97914.88;;;2.79;100.00
61900;BME280;47853;55.890;37.664;2024-01-25T04:54:46;97893.53;;;2.73;100.00
61900;BME280;47853;55.890;37.664;2024-01-25T04:57:11;97892.28;;;2.33;100.00
61900;BME280;47853;55.890;37.664;2024-01-25T04:59:36;97900.06;;;1.88;100.00
61900;BME280;47853;55.890;37.664;2024-01-25T05:02:02;97904.09;;;2.37;100.00
61900;BME280;47853;55.890;37.664;2024-01-25T05:04:28;97896.25;;;2.01;100.00
61900;BME280;47853;55.890;37.664;2024-01-25T05:06:54;97901.47;;;2.37;100.00
61900;BME280;47853;55.890;37.664;2024-01-25T05:09:19;97901.44;;;2.55;100.00
61900;BME280;47853;55.890;37.664;2024-01-25T05:11:45;97897.75;;;2.93;100.00
61900;BME280;47853;55.890;37.664;2024-01-25T05:14:10;97899.09;;;2.44;100.00
61900;BME280;47853;55.890;37.664;2024-01-25T05:16:36;97907.81;;;2.35;100.00
61900;BME280;47853;55.890;37.664;2024-01-25T05:19:01;97908.38;;;2.02;100.00
61900;BME280;47853;55.890;37.664;2024-01-25T05:21:27;97913.00;;;2.26;100.00
61900;BME280;47853;55.890;37.664;2024-01-25T05:23:52;97913.88;;;2.53;100.00
61900;BME280;47853;55.890;37.664;2024-01-25T05:26:18;97898.38;;;2.42;100.00
61900;BME280;47853;55.890;37.664;2024-01-25T05:28:43;97901.78;;;2.79;100.00
61900;BME280;47853;55.890;37.664;2024-01-25T05:31:09;97894.63;;;2.63;100.00
61900;BME280;47853;55.890;37.664;2024-01-25T05:33:34;97895.16;;;2.66;100.00
61900;BME280;47853;55.890;37.664;2024-01-25T05:36:00;97894.91;;;2.59;100.00
61900;BME280;47853;55.890;37.664;2024-01-25T05:38:25;97901.97;;;3.12;100.00
61900;BME280;47853;55.890;37.664;2024-01-25T05:40:50;97890.34;;;2.61;100.00
61900;BME280;47853;55.890;37.664;2024-01-25T05:43:16;97896.31;;;2.09;100.00
61900;BME280;47853;55.890;37.664;2024-01-25T05:45:41;97897.66;;;2.13;100.00
61900;BME280;47853;55.890;37.664;2024-01-25T05:48:07;97908.44;;;2.73;100.00
61900;BME280;47853;55.890;37.664;2024-01-25T05:50:32;97888.19;;;2.83;100.00
61900;BME280;47853;55.890;37.664;2024-01-25T05:52:58;97887.03;;;2.33;100.00
61900;BME280;47853;55.890;37.664;2024-01-25T05:55:23;97900.06;;;2.69;100.00
61900;BME280;47853;55.890;37.664;2024-01-25T05:57:48;97892.38;;;3.02;100.00
61900;BME280;47853;55.890;37.664;2024-01-25T06:00:14;97899.75;;;2.46;100.00
61900;BME280;47853;55.890;37.664;2024-01-25T06:02:40;97888.53;;;2.62;100.00
61900;BME280;47853;55.890;37.664;2024-01-25T06:05:05;97884.19;;;2.71;100.00
61900;BME280;47853;55.890;37.664;2024-01-25T06:07:31;97887.59;;;1.54;100.00
61900;BME280;47853;55.890;37.664;2024-01-25T06:09:56;97885.31;;;2.68;100.00
61900;BME280;47853;55.890;37.664;2024-01-25T06:12:22;97903.47;;;1.71;100.00
61900;BME280;47853;55.890;37.664;2024-01-25T06:14:47;97879.53;;;1.66;100.00
61900;BME280;47853;55.890;37.664;2024-01-25T06:17:12;97901.59;;;2.54;100.00
61900;BME280;47853;55.890;37.664;2024-01-25T06:19:38;97909.69;;;2.60;100.00
61900;BME280;47853;55.890;37.664;2024-01-25T06:22:03;97897.94;;;2.73;100.00
61900;BME280;47853;55.890;37.664;2024-01-25T06:24:29;97897.75;;;2.66;100.00
61900;BME280;47853;55.890;37.664;2024-01-25T06:26:54;97884.66;;;2.93;100.00
61900;BME280;47853;55.890;37.664;2024-01-25T06:29:20;97901.75;;;2.52;100.00
61900;BME280;47853;55.890;37.664;2024-01-25T06:31:45;97901.47;;;2.82;100.00
61900;BME280;47853;55.890;37.664;2024-01-25T06:34:11;97893.59;;;2.55;100.00
61900;BME280;47853;55.890;37.664;2024-01-25T06:36:37;97890.25;;;2.71;100.00
61900;BME280;47853;55.890;37.664;2024-01-25T06:39:02;97883.28;;;2.36;100.00
61900;BME280;47853;55.890;37.664;2024-01-25T06:41:28;97890.72;;;1.86;100.00
61900;BME280;47853;55.890;37.664;2024-01-25T06:43:53;97873.69;;;2.71;100.00
61900;BME280;47853;55.890;37.664;2024-01-25T06:46:19;97893.78;;;1.99;100.00
61900;BME280;47853;55.890;37.664;2024-01-25T06:48:44;97883.28;;;2.36;100.00
61900;BME280;47853;55.890;37.664;2024-01-25T06:51:09;97867.53;;;2.54;100.00
61900;BME280;47853;55.890;37.664;2024-01-25T06:53:35;97874.50;;;2.00;100.00
61900;BME280;47853;55.890;37.664;2024-01-25T06:56:00;97882.63;;;3.13;100.00
61900;BME280;47853;55.890;37.664;2024-01-25T06:58:26;97870.41;;;3.03;100.00
61900;BME280;47853;55.890;37.664;2024-01-25T07:00:51;97893.38;;;2.49;100.00
61900;BME280;47853;55.890;37.664;2024-01-25T07:03:17;97895.19;;;2.48;100.00
61900;BME280;47853;55.890;37.664;2024-01-25T07:05:42;97909.28;;;2.73;100.00
61900;BME280;47853;55.890;37.664;2024-01-25T07:08:07;97896.16;;;2.47;100.00
61900;BME280;47853;55.890;37.664;2024-01-25T07:10:33;97894.53;;;3.07;100.00
61900;BME280;47853;55.890;37.664;2024-01-25T07:12:58;97883.34;;;2.97;100.00
61900;BME280;47853;55.890;37.664;2024-01-25T07:15:24;97899.00;;;2.17;100.00
61900;BME280;47853;55.890;37.664;2024-01-25T07:17:50;97897.25;;;2.63;100.00
61900;BME280;47853;55.890;37.664;2024-01-25T07:20:15;97907.47;;;2.29;100.00
61900;BME280;47853;55.890;37.664;2024-01-25T07:22:41;97891.09;;;2.09;100.00
61900;BME280;47853;55.890;37.664;2024-01-25T07:25:06;97897.78;;;2.48;100.00
61900;BME280;47853;55.890;37.664;2024-01-25T07:27:32;97889.41;;;2.71;100.00
61900;BME280;47853;55.890;37.664;2024-01-25T07:29:57;97895.38;;;2.81;100.00
61900;BME280;47853;55.890;37.664;2024-01-25T07:32:23;97891.88;;;2.46;100.00
61900;BME280;47853;55.890;37.664;2024-01-25T07:34:48;97902.72;;;2.51;100.00
61900;BME280;47853;55.890;37.664;2024-01-25T07:37:14;97888.72;;;2.60;100.00
61900;BME280;47853;55.890;37.664;2024-01-25T07:39:39;97886.34;;;2.49;100.00
61900;BME280;47853;55.890;37.664;2024-01-25T07:42:05;97900.84;;;2.61;100.00
61900;BME280;47853;55.890;37.664;2024-01-25T07:44:30;97902.56;;;2.53;100.00
61900;BME280;47853;55.890;37.664;2024-01-25T07:46:56;97902.25;;;2.56;100.00
61900;BME280;47853;55.890;37.664;2024-01-25T07:49:21;97892.47;;;2.40;100.00
61900;BME280;47853;55.890;37.664;2024-01-25T07:51:46;97891.13;;;2.36;100.00
61900;BME280;47853;55.890;37.664;2024-01-25T07:54:12;97908.91;;;2.06;100.00
61900;BME280;47853;55.890;37.664;2024-01-25T07:56:38;97895.44;;;1.82;100.00
61900;BME280;47853;55.890;37.664;2024-01-25T07:59:03;97888.38;;;2.19;100.00
61900;BME280;47853;55.890;37.664;2024-01-25T08:01:29;97911.16;;;2.63;100.00
61900;BME280;47853;55.890;37.664;2024-01-25T08:03:54;97900.16;;;2.59;100.00
61900;BME280;47853;55.890;37.664;2024-01-25T08:06:20;97896.00;;;1.76;100.00
61900;BME280;47853;55.890;37.664;2024-01-25T08:08:45;97894.09;;;2.59;100.00
61900;BME280;47853;55.890;37.664;2024-01-25T08:11:10;97882.56;;;2.52;100.00
61900;BME280;47853;55.890;37.664;2024-01-25T08:13:36;97905.09;;;2.63;100.00
61900;BME280;47853;55.890;37.664;2024-01-25T08:16:01;97904.50;;;2.51;100.00
61900;BME280;47853;55.890;37.664;2024-01-25T08:18:27;97906.94;;;2.44;100.00
61900;BME280;47853;55.890;37.664;2024-01-25T08:20:52;97906.72;;;2.19;100.00
61900;BME280;47853;55.890;37.664;2024-01-25T08:23:18;97903.84;;;3.01;100.00
61900;BME280;47853;55.890;37.664;2024-01-25T08:25:43;97899.81;;;2.81;100.00
61900;BME280;47853;55.890;37.664;2024-01-25T08:28:09;97909.34;;;3.16;100.00
61900;BME280;47853;55.890;37.664;2024-01-25T08:30:34;97889.59;;;2.69;100.00
61900;BME280;47853;55.890;37.664;2024-01-25T08:32:59;97910.00;;;1.85;100.00
61900;BME280;47853;55.890;37.664;2024-01-25T08:35:25;97898.94;;;2.09;100.00
61900;BME280;47853;55.890;37.664;2024-01-25T08:37:50;97884.09;;;1.64;100.00
61900;BME280;47853;55.890;37.664;2024-01-25T08:40:16;97905.75;;;2.02;100.00
61900;BME280;47853;55.890;37.664;2024-01-25T08:42:42;97899.25;;;2.69;100.00
61900;BME280;47853;55.890;37.664;2024-01-25T08:45:07;97896.38;;;2.17;100.00
61900;BME280;47853;55.890;37.664;2024-01-25T08:47:44;97890.72;;;1.86;100.00
61900;BME280;47853;55.890;37.664;2024-01-25T08:50:10;97884.13;;;2.63;100.00
61900;BME280;47853;55.890;37.664;2024-01-25T08:52:37;97869.66;;;2.32;100.00
61900;BME280;47853;55.890;37.664;2024-01-25T08:55:03;97904.75;;;2.57;100.00
61900;BME280;47853;55.890;37.664;2024-01-25T08:57:29;97900.41;;;2.48;100.00
61900;BME280;47853;55.890;37.664;2024-01-25T08:59:54;97899.97;;;1.98;100.00
61900;BME280;47853;55.890;37.664;2024-01-25T09:02:20;97895.94;;;2.40;100.00
61900;BME280;47853;55.890;37.664;2024-01-25T09:04:45;97910.16;;;2.20;100.00
61900;BME280;47853;55.890;37.664;2024-01-25T09:07:11;97888.16;;;2.12;100.00
61900;BME280;47853;55.890;37.664;2024-01-25T09:09:36;97892.59;;;2.30;100.00
61900;BME280;47853;55.890;37.664;2024-01-25T09:12:02;97899.03;;;1.81;100.00
61900;BME280;47853;55.890;37.664;2024-01-25T09:14:27;97905.63;;;2.03;100.00
61900;BME280;47853;55.890;37.664;2024-01-25T09:16:53;97890.72;;;1.86;100.00
61900;BME280;47853;55.890;37.664;2024-01-25T09:19:18;97903.19;;;1.92;100.00
61900;BME280;47853;55.890;37.664;2024-01-25T09:21:44;97902.47;;;2.63;100.00
61900;BME280;47853;55.890;37.664;2024-01-25T09:24:09;97918.75;;;2.48;100.00
61900;BME280;47853;55.890;37.664;2024-01-25T09:26:34;97913.06;;;2.16;100.00
61900;BME280;47853;55.890;37.664;2024-01-25T09:29:00;97911.16;;;2.63;100.00
61900;BME280;47853;55.890;37.664;2024-01-25T09:31:25;97918.47;;;2.15;100.00
61900;BME280;47853;55.890;37.664;2024-01-25T09:33:51;97886.13;;;2.69;100.00
61900;BME280;47853;55.890;37.664;2024-01-25T09:36:17;97886.75;;;2.18;100.00
61900;BME280;47853;55.890;37.664;2024-01-25T09:38:43;97890.03;;;2.20;100.00
61900;BME280;47853;55.890;37.664;2024-01-25T09:41:11;97890.09;;;2.73;100.00
61900;BME280;47853;55.890;37.664;2024-01-25T09:43:36;97890.53;;;2.42;100.00
61900;BME280;47853;55.890;37.664;2024-01-25T09:46:02;97871.34;;;2.59;100.00
61900;BME280;47853;55.890;37.664;2024-01-25T09:48:27;97880.22;;;2.93;100.00
61900;BME280;47853;55.890;37.664;2024-01-25T09:50:55;97874.50;;;3.32;100.00
61900;BME280;47853;55.890;37.664;2024-01-25T09:53:24;97880.72;;;2.97;100.00
61900;BME280;47853;55.890;37.664;2024-01-25T09:56:09;97884.84;;;2.46;100.00
61900;BME280;47853;55.890;37.664;2024-01-25T09:58:42;97881.47;;;2.81;100.00
61900;BME280;47853;55.890;37.664;2024-01-25T10:01:09;97870.44;;;2.51;100.00
61900;BME280;47853;55.890;37.664;2024-01-25T10:03:34;97867.06;;;3.28;100.00
61900;BME280;47853;55.890;37.664;2024-01-25T10:06:00;97870.97;;;2.54;100.00
61900;BME280;47853;55.890;37.664;2024-01-25T10:08:25;97877.25;;;2.17;100.00
61900;BME280;47853;55.890;37.664;2024-01-25T10:10:51;97869.03;;;1.94;100.00
61900;BME280;47853;55.890;37.664;2024-01-25T10:13:16;97867.31;;;2.02;100.00
61900;BME280;47853;55.890;37.664;2024-01-25T10:15:42;97866.44;;;2.38;100.00
61900;BME280;47853;55.890;37.664;2024-01-25T10:18:07;97859.59;;;2.01;100.00
61900;BME280;47853;55.890;37.664;2024-01-25T10:20:33;97865.50;;;2.03;100.00
61900;BME280;47853;55.890;37.664;2024-01-25T10:22:58;97860.47;;;2.28;100.00
61900;BME280;47853;55.890;37.664;2024-01-25T10:25:23;97858.50;;;3.09;100.00
61900;BME280;47853;55.890;37.664;2024-01-25T10:27:49;97870.50;;;2.14;100.00
61900;BME280;47853;55.890;37.664;2024-01-25T10:30:14;97866.81;;;3.39;100.00
61900;BME280;47853;55.890;37.664;2024-01-25T10:32:40;97869.31;;;3.14;100.00
61900;BME280;47853;55.890;37.664;2024-01-25T10:35:10;97862.03;;;2.65;100.00
61900;BME280;47853;55.890;37.664;2024-01-25T10:37:39;97866.16;;;3.02;100.00
61900;BME280;47853;55.890;37.664;2024-01-25T10:40:05;97869.72;;;2.40;100.00
61900;BME280;47853;55.890;37.664;2024-01-25T10:42:30;97869.22;;;3.24;100.00
61900;BME280;47853;55.890;37.664;2024-01-25T10:44:56;97876.16;;;2.46;100.00
61900;BME280;47853;55.890;37.664;2024-01-25T10:47:22;97871.44;;;2.76;100.00
61900;BME280;47853;55.890;37.664;2024-01-25T10:49:48;97870.09;;;2.45;100.00
61900;BME280;47853;55.890;37.664;2024-01-25T10:52:14;97857.91;;;2.63;100.00
61900;BME280;47853;55.890;37.664;2024-01-25T10:54:40;97885.00;;;2.45;100.00
61900;BME280;47853;55.890;37.664;2024-01-25T10:57:06;97872.53;;;2.65;100.00
61900;BME280;47853;55.890;37.664;2024-01-25T10:59:31;97875.84;;;2.49;100.00
61900;BME280;47853;55.890;37.664;2024-01-25T11:01:57;97897.16;;;3.42;100.00
61900;BME280;47853;55.890;37.664;2024-01-25T11:04:23;97871.94;;;2.80;100.00
61900;BME280;47853;55.890;37.664;2024-01-25T11:06:49;97877.75;;;2.92;100.00
61900;BME280;47853;55.890;37.664;2024-01-25T11:09:17;97874.78;;;3.21;100.00
61900;BME280;47853;55.890;37.664;2024-01-25T11:11:47;97877.47;;;3.46;100.00
61900;BME280;47853;55.890;37.664;2024-01-25T11:14:13;97876.44;;;2.87;100.00
61900;BME280;47853;55.890;37.664;2024-01-25T11:16:39;97877.88;;;3.59;100.00
61900;BME280;47853;55.890;37.664;2024-01-25T11:19:05;97883.06;;;3.08;100.00
61900;BME280;47853;55.890;37.664;2024-01-25T11:21:44;97891.22;;;2.70;100.00
61900;BME280;47853;55.890;37.664;2024-01-25T11:24:23;97884.63;;;3.27;100.00
61900;BME280;47853;55.890;37.664;2024-01-25T11:26:49;97869.25;;;3.32;100.00
61900;BME280;47853;55.890;37.664;2024-01-25T11:29:16;97882.75;;;3.11;100.00
61900;BME280;47853;55.890;37.664;2024-01-25T11:31:44;97887.44;;;2.99;100.00
61900;BME280;47853;55.890;37.664;2024-01-25T11:34:11;97886.34;;;2.75;100.00
61900;BME280;47853;55.890;37.664;2024-01-25T11:36:36;97889.00;;;3.10;100.00
61900;BME280;47853;55.890;37.664;2024-01-25T11:39:02;97884.75;;;3.17;100.00
61900;BME280;47853;55.890;37.664;2024-01-25T11:41:27;97879.16;;;3.12;100.00
61900;BME280;47853;55.890;37.664;2024-01-25T11:43:53;97893.19;;;2.68;100.00
61900;BME280;47853;55.890;37.664;2024-01-25T11:46:18;97885.78;;;2.64;100.00
61900;BME280;47853;55.890;37.664;2024-01-25T11:48:44;97886.38;;;3.10;100.00
61900;BME280;47853;55.890;37.664;2024-01-25T11:51:10;97894.78;;;2.87;100.00
61900;BME280;47853;55.890;37.664;2024-01-25T11:53:35;97887.19;;;3.54;100.00
61900;BME280;47853;55.890;37.664;2024-01-25T11:56:01;97886.97;;;2.96;100.00
61900;BME280;47853;55.890;37.664;2024-01-25T11:58:27;97882.50;;;2.96;100.00
61900;BME280;47853;55.890;37.664;2024-01-25T12:00:54;97882.16;;;3.26;100.00
61900;BME280;47853;55.890;37.664;2024-01-25T12:03:19;97892.88;;;3.41;100.00
61900;BME280;47853;55.890;37.664;2024-01-25T12:05:45;97886.66;;;3.50;100.00
61900;BME280;47853;55.890;37.664;2024-01-25T12:08:13;97893.78;;;3.66;100.00
61900;BME280;47853;55.890;37.664;2024-01-25T12:10:39;97901.84;;;3.30;100.00
61900;BME280;47853;55.890;37.664;2024-01-25T12:13:08;97889.75;;;3.02;100.00
61900;BME280;47853;55.890;37.664;2024-01-25T12:15:34;97889.81;;;2.58;100.00
61900;BME280;47853;55.890;37.664;2024-01-25T12:18:00;97894.91;;;2.86;100.00
61900;BME280;47853;55.890;37.664;2024-01-25T12:20:26;97893.09;;;2.86;100.00
61900;BME280;47853;55.890;37.664;2024-01-25T12:22:51;97895.31;;;2.73;100.00
61900;BME280;47853;55.890;37.664;2024-01-25T12:25:17;97900.50;;;2.38;100.00
61900;BME280;47853;55.890;37.664;2024-01-25T12:27:42;97914.94;;;2.24;100.00
61900;BME280;47853;55.890;37.664;2024-01-25T12:30:08;97908.69;;;2.61;100.00
61900;BME280;47853;55.890;37.664;2024-01-25T12:32:34;97893.34;;;3.01;100.00
61900;BME280;47853;55.890;37.664;2024-01-25T12:35:00;97900.63;;;3.51;100.00
61900;BME280;47853;55.890;37.664;2024-01-25T12:37:26;97896.38;;;3.58;100.00
61900;BME280;47853;55.890;37.664;2024-01-25T12:39:52;97903.19;;;2.99;100.00
61900;BME280;47853;55.890;37.664;2024-01-25T12:42:19;97902.88;;;3.97;100.00